Etusivu
METAR-TAF:

METAR-TAF

Lentoasemat :

Wakkanai, Japani

Leveyspiiri: 45-24N, Pituuspiiri: 141-48E, korkeus merenpinnasta: 8 m

Tämänhetkinen sää

Tämä raportti tehtiin 10 tuntia ja 54 minuuttia sitten, kello 09.19 UTC
Tuuli 11 kn idästä
Lämpötila 16°C
Kosteus 94%
Ilmanpaine 1011 hPa
Näkyvyys 10 km tai enemmän
Muutamia pilviä 300 ft:n korkeudessa
Hajonneita pilviä 400 ft:n korkeudessa
Hajonneita pilviä 500 ft:n korkeudessa

METAR: RJCW 200919Z 09011KT 9999 FEW003 BKN004 BKN005 16/15 Q1011 RMK 1ST003 5ST004 7ST005 A2987

Aika: 05:13 (20:13 UTC)


TAF: puuttuu

Säähavainnot ja -ennusteet yli 4000 lentoasemalta (METAR- ja TAF-raportit).

Käytössä olevat sääasemat on merkitty karttaan keltaisilla ja punaisilla pisteillä.

Aseta hiiri pisteen päälle nähdäksesi sääaseman nimen.

Klikkaa sitten nähdäksesi säähavainnot ja -ennusteet.

Kartan vaihtaminen: klikkaa mustalla rastilla varustettuja vihreitä pisteitä, niin voit zoomata sisään; viivalla varustettua vihreää pistettä, niin voit zoomata ulos tai vihreitä nuolia, niin pääset viereisille kartoille.


METAR-TAF: